createdAt,value
2022-09-13T00:00:44.887Z,16.54
2022-09-13T00:06:08.805Z,16.29
2022-09-13T00:11:01.217Z,16.16
2022-09-13T00:16:01.201Z,16.10
2022-09-13T00:21:01.072Z,15.95
2022-09-13T00:26:01.006Z,15.92
2022-09-13T00:31:00.939Z,15.88
2022-09-13T00:36:00.881Z,15.76
2022-09-13T00:41:00.810Z,15.65
2022-09-13T00:46:00.783Z,15.67
2022-09-13T00:51:00.681Z,15.76
2022-09-13T00:56:00.617Z,15.79
2022-09-13T01:01:00.571Z,15.82
2022-09-13T01:06:00.475Z,15.77
2022-09-13T01:11:00.404Z,15.62
2022-09-13T01:16:00.419Z,15.37
2022-09-13T01:21:00.290Z,15.31
2022-09-13T01:26:00.201Z,15.35
2022-09-13T01:31:00.115Z,15.33
2022-09-13T01:36:00.099Z,15.36
2022-09-13T01:41:02.972Z,15.44
2022-09-13T01:46:00.052Z,15.51
2022-09-13T01:50:59.887Z,15.54
2022-09-13T01:55:59.837Z,15.57
2022-09-13T02:00:59.832Z,15.61
2022-09-13T02:05:59.707Z,15.65
2022-09-13T02:10:59.622Z,15.70
2022-09-13T02:15:59.543Z,15.75
2022-09-13T02:20:59.473Z,15.82
2022-09-13T02:25:59.437Z,15.83
2022-09-13T02:30:59.359Z,15.91
2022-09-13T02:35:59.289Z,15.97
2022-09-13T02:40:59.220Z,15.90
2022-09-13T02:45:59.241Z,15.86
2022-09-13T02:50:59.100Z,15.79
2022-09-13T02:55:59.022Z,15.73
2022-09-13T03:00:59.011Z,15.72
2022-09-13T03:05:58.892Z,15.72
2022-09-13T03:10:58.874Z,15.65
2022-09-13T03:15:58.755Z,15.57
2022-09-13T03:20:58.712Z,15.46
2022-09-13T03:25:58.625Z,15.37
2022-09-13T03:30:58.568Z,15.36
2022-09-13T03:35:58.478Z,15.37
2022-09-13T03:40:58.429Z,15.37
2022-09-13T03:45:58.393Z,15.42
2022-09-13T03:50:58.281Z,15.46
2022-09-13T03:55:58.193Z,15.46
2022-09-13T04:00:58.181Z,15.47
2022-09-13T04:05:58.093Z,15.43
2022-09-13T04:10:57.995Z,15.36
2022-09-13T04:16:07.051Z,15.24
2022-09-13T04:20:59.889Z,15.31
2022-09-13T04:25:59.862Z,15.37
2022-09-13T04:30:59.782Z,15.40
2022-09-13T04:35:59.682Z,15.43
2022-09-13T04:40:59.655Z,15.40
2022-09-13T04:45:59.652Z,15.36
2022-09-13T04:50:59.486Z,15.42
2022-09-13T04:55:59.443Z,15.46
2022-09-13T05:01:00.357Z,15.49
2022-09-13T05:05:59.313Z,15.49
2022-09-13T05:10:59.239Z,15.46
2022-09-13T05:15:59.257Z,15.46
2022-09-13T05:20:59.120Z,15.54
2022-09-13T05:25:59.032Z,15.55
2022-09-13T05:30:59.017Z,15.57
2022-09-13T05:35:58.907Z,15.68
2022-09-13T05:40:58.882Z,15.82
2022-09-13T05:45:58.804Z,15.94
2022-09-13T05:50:59.007Z,16.01
2022-09-13T05:55:58.663Z,16.09
2022-09-13T06:00:58.590Z,16.16
2022-09-13T06:05:58.532Z,16.24
2022-09-13T06:10:58.473Z,16.29
2022-09-13T06:15:58.482Z,16.36
2022-09-13T06:20:58.310Z,16.42
2022-09-13T06:25:58.245Z,16.42
2022-09-13T06:30:58.244Z,16.42
2022-09-13T06:35:58.117Z,16.46
2022-09-13T06:40:58.049Z,16.43
2022-09-13T06:45:58.037Z,16.49
2022-09-13T06:50:57.998Z,16.51
2022-09-13T06:55:57.889Z,16.64
2022-09-13T07:00:58.024Z,16.79
2022-09-13T07:05:57.842Z,17.05
2022-09-13T07:10:57.654Z,17.42
2022-09-13T07:15:57.642Z,17.79
2022-09-13T07:20:57.510Z,18.13
2022-09-13T07:25:57.453Z,18.08
2022-09-13T07:30:57.389Z,18.10
2022-09-13T07:35:57.318Z,18.34
2022-09-13T07:40:57.254Z,18.59
2022-09-13T07:45:57.232Z,18.83
2022-09-13T07:50:57.109Z,19.08
2022-09-13T07:55:57.102Z,19.40
2022-09-13T08:00:56.981Z,19.55
2022-09-13T08:05:56.954Z,19.56
2022-09-13T08:10:56.856Z,19.48
2022-09-13T08:15:56.829Z,19.26
2022-09-13T08:20:56.718Z,19.02
2022-09-13T08:25:56.649Z,18.75
2022-09-13T08:30:56.601Z,18.66
2022-09-13T08:35:56.503Z,18.58
2022-09-13T08:40:56.462Z,18.62
2022-09-13T08:45:56.518Z,18.80
2022-09-13T08:50:56.313Z,19.14
2022-09-13T08:55:56.261Z,19.39
2022-09-13T09:00:56.189Z,19.31
2022-09-13T09:05:56.250Z,19.37
2022-09-13T09:10:56.058Z,19.62
2022-09-13T09:15:56.140Z,19.91
2022-09-13T09:20:56.038Z,20.29
2022-09-13T09:25:55.855Z,20.82
2022-09-13T09:30:55.836Z,21.73
2022-09-13T09:35:55.732Z,22.00
2022-09-13T09:40:55.714Z,22.44
2022-09-13T09:45:55.601Z,22.50
2022-09-13T09:50:55.575Z,22.83
2022-09-13T09:55:55.512Z,24.54
2022-09-13T10:00:55.408Z,25.51
2022-09-13T10:05:55.318Z,25.78
2022-09-13T10:10:55.279Z,26.95
2022-09-13T10:15:55.198Z,26.16
2022-09-13T10:20:55.122Z,25.73
2022-09-13T10:25:55.056Z,24.65
2022-09-13T10:30:55.041Z,24.18
2022-09-13T10:35:54.946Z,24.92
2022-09-13T10:40:54.870Z,25.38
2022-09-13T10:45:54.892Z,25.21
2022-09-13T10:50:54.770Z,25.29
2022-09-13T10:55:54.682Z,25.63
2022-09-13T11:00:54.721Z,26.45
2022-09-13T11:05:54.542Z,27.42
2022-09-13T11:10:54.495Z,29.23
2022-09-13T11:15:54.443Z,30.30
2022-09-13T11:20:54.315Z,29.61
2022-09-13T11:25:54.283Z,27.98
2022-09-13T11:30:54.222Z,29.24
2022-09-13T11:35:54.178Z,29.68
2022-09-13T11:40:54.116Z,28.07
2022-09-13T11:45:54.229Z,29.10
2022-09-13T11:50:54.041Z,30.87
2022-09-13T11:55:53.905Z,28.72
2022-09-13T12:00:53.845Z,28.33
2022-09-13T12:05:53.804Z,28.45
2022-09-13T12:10:53.779Z,29.12
2022-09-13T12:15:53.628Z,30.19
2022-09-13T12:20:53.558Z,29.50
2022-09-13T12:25:53.587Z,29.01
2022-09-13T12:30:53.477Z,29.81
2022-09-13T12:35:53.410Z,30.55
2022-09-13T12:40:53.324Z,30.70
2022-09-13T12:45:53.344Z,29.26
2022-09-13T12:50:53.187Z,27.71
2022-09-13T12:55:53.142Z,26.80
2022-09-13T13:00:53.141Z,26.15
2022-09-13T13:05:53.011Z,25.93
2022-09-13T13:10:52.932Z,25.68
2022-09-13T13:15:52.911Z,25.62
2022-09-13T13:20:53.146Z,25.47
2022-09-13T13:25:52.744Z,25.32
2022-09-13T13:30:52.898Z,25.23
2022-09-13T13:35:52.643Z,25.07
2022-09-13T13:40:52.733Z,24.50
2022-09-13T13:45:52.531Z,24.03
2022-09-13T13:50:52.399Z,23.91
2022-09-13T13:55:52.334Z,23.93
2022-09-13T14:00:52.327Z,24.08
2022-09-13T14:05:52.230Z,24.03
2022-09-13T14:10:52.127Z,24.02
2022-09-13T14:15:52.079Z,24.10
2022-09-13T14:20:52.052Z,24.13
2022-09-13T14:25:51.934Z,23.76
2022-09-13T14:30:51.937Z,23.54
2022-09-13T14:35:52.263Z,23.51
2022-09-13T14:40:51.723Z,23.43
2022-09-13T14:45:51.759Z,23.46
2022-09-13T14:50:51.669Z,23.21
2022-09-13T14:55:51.535Z,23.20
2022-09-13T15:00:51.533Z,22.98
2022-09-13T15:05:51.455Z,22.88
2022-09-13T15:10:51.346Z,22.94
2022-09-13T15:15:51.402Z,23.06
2022-09-13T15:20:51.237Z,23.12
2022-09-13T15:25:51.563Z,23.12
2022-09-13T15:30:51.056Z,23.08
2022-09-13T15:35:51.009Z,23.08
2022-09-13T15:40:50.940Z,23.08
2022-09-13T15:45:50.882Z,23.02
2022-09-13T15:50:50.828Z,22.88
2022-09-13T15:55:50.728Z,22.72
2022-09-13T16:00:50.752Z,22.62
2022-09-13T16:05:50.627Z,22.51
2022-09-13T16:10:50.520Z,22.41
2022-09-13T16:15:53.583Z,22.23
2022-09-13T16:20:51.424Z,21.99
2022-09-13T16:25:50.360Z,21.89
2022-09-13T16:30:50.263Z,21.67
2022-09-13T16:35:50.233Z,21.48
2022-09-13T16:40:50.341Z,21.27
2022-09-13T16:45:50.101Z,21.11
2022-09-13T16:50:50.050Z,20.92
2022-09-13T16:55:49.974Z,20.80
2022-09-13T17:00:49.893Z,20.77
2022-09-13T17:05:49.966Z,20.69
2022-09-13T17:10:49.777Z,20.62
2022-09-13T17:15:52.648Z,20.55
2022-09-13T17:20:50.634Z,20.50
2022-09-13T17:25:49.572Z,20.44
2022-09-13T17:30:49.631Z,20.31
2022-09-13T17:35:49.421Z,20.16
2022-09-13T17:40:49.362Z,20.07
2022-09-13T17:45:49.654Z,19.99
2022-09-13T17:50:49.215Z,19.92
2022-09-13T17:55:49.250Z,19.84
2022-09-13T18:00:49.114Z,19.77
2022-09-13T18:05:49.085Z,19.77
2022-09-13T18:11:10.630Z,19.79
2022-09-13T18:15:49.963Z,19.73
2022-09-13T18:20:48.890Z,19.69
2022-09-13T18:25:49.704Z,19.67
2022-09-13T18:30:48.820Z,19.64
2022-09-13T18:35:48.640Z,19.63
2022-09-13T18:40:48.579Z,19.69
2022-09-13T18:45:48.512Z,19.63
2022-09-13T18:50:48.446Z,19.64
2022-09-13T18:55:48.418Z,19.62
2022-09-13T19:00:49.842Z,19.63
2022-09-13T19:05:48.316Z,19.55
2022-09-13T19:10:48.173Z,19.56
2022-09-13T19:15:48.163Z,19.54
2022-09-13T19:20:48.040Z,19.55
2022-09-13T19:25:48.361Z,19.51
2022-09-13T19:30:47.976Z,19.51
2022-09-13T19:35:47.902Z,19.48
2022-09-13T19:40:47.799Z,19.44
2022-09-13T19:45:49.033Z,19.39
2022-09-13T19:50:47.709Z,19.41
2022-09-13T19:55:47.675Z,19.40
2022-09-13T20:00:48.436Z,19.39
2022-09-13T20:05:47.461Z,19.37
2022-09-13T20:10:47.488Z,19.39
2022-09-13T20:15:47.372Z,19.31
2022-09-13T20:20:47.248Z,19.27
2022-09-13T20:25:48.204Z,19.26
2022-09-13T20:30:47.126Z,19.22
2022-09-13T20:35:47.145Z,19.19
2022-09-13T20:40:46.991Z,19.16
2022-09-13T20:45:47.299Z,19.18
2022-09-13T20:50:47.805Z,19.22
2022-09-13T20:55:46.805Z,19.24
2022-09-13T21:00:47.694Z,19.26
2022-09-13T21:05:46.680Z,19.27
2022-09-13T21:10:46.664Z,19.29
2022-09-13T21:15:46.505Z,19.31
2022-09-13T21:20:46.571Z,19.21
2022-09-13T21:25:46.393Z,19.11
2022-09-13T21:30:46.395Z,19.07
2022-09-13T21:35:46.271Z,19.00
2022-09-13T21:40:46.325Z,19.07
2022-09-13T21:45:46.226Z,19.09
2022-09-13T21:50:46.057Z,19.11
2022-09-13T21:55:46.046Z,19.15
2022-09-13T22:00:45.956Z,19.19
2022-09-13T22:05:45.855Z,19.12
2022-09-13T22:10:45.813Z,19.12
2022-09-13T22:15:45.878Z,19.11
2022-09-13T22:20:45.640Z,19.09
2022-09-13T22:25:45.757Z,19.09
2022-09-13T22:30:45.600Z,19.11
2022-09-13T22:35:45.464Z,19.11
2022-09-13T22:40:45.431Z,19.11
2022-09-13T22:45:45.380Z,19.09
2022-09-13T22:50:45.247Z,19.07
2022-09-13T22:55:45.209Z,19.02
2022-09-13T23:00:45.199Z,18.99
2022-09-13T23:05:45.060Z,18.99
2022-09-13T23:10:45.005Z,18.95
2022-09-13T23:15:45.014Z,18.96
2022-09-13T23:20:44.861Z,18.98
2022-09-13T23:25:44.873Z,18.93
2022-09-13T23:30:44.804Z,18.90
2022-09-13T23:35:44.664Z,18.90
2022-09-13T23:40:44.621Z,18.89
2022-09-13T23:45:44.705Z,18.88
2022-09-13T23:50:44.600Z,18.89
2022-09-13T23:55:44.424Z,18.83
